createdAt,value
2022-10-07T00:01:10.366Z,11.77
2022-10-07T00:03:37.600Z,11.76
2022-10-07T00:06:13.235Z,11.81
2022-10-07T00:08:43.472Z,11.79
2022-10-07T00:11:13.171Z,11.73
2022-10-07T00:13:42.134Z,11.69
2022-10-07T00:16:15.653Z,11.64
2022-10-07T00:18:46.605Z,11.66
2022-10-07T00:21:16.368Z,11.67
2022-10-07T00:23:44.596Z,11.56
2022-10-07T00:26:14.648Z,11.59
2022-10-07T00:28:43.023Z,11.61
2022-10-07T00:31:15.306Z,11.56
2022-10-07T00:33:43.275Z,11.54
2022-10-07T00:36:16.129Z,11.54
2022-10-07T00:38:50.550Z,11.50
2022-10-07T00:41:25.991Z,11.43
2022-10-07T00:43:56.170Z,11.41
2022-10-07T00:46:35.916Z,11.41
2022-10-07T00:49:11.048Z,11.33
2022-10-07T00:51:39.086Z,11.32
2022-10-07T00:54:11.174Z,11.27
2022-10-07T00:56:41.270Z,11.28
2022-10-07T00:59:09.193Z,11.22
2022-10-07T01:01:36.371Z,11.23
2022-10-07T01:04:04.189Z,11.28
2022-10-07T01:06:33.845Z,11.28
2022-10-07T01:09:00.871Z,11.28
2022-10-07T01:11:55.856Z,11.23
2022-10-07T01:15:03.249Z,11.15
2022-10-07T01:17:53.289Z,11.12
2022-10-07T01:20:48.314Z,11.13
2022-10-07T01:23:15.270Z,11.13
2022-10-07T01:26:20.573Z,11.11
2022-10-07T01:29:05.019Z,11.03
2022-10-07T01:31:41.045Z,10.95
2022-10-07T01:34:10.591Z,10.95
2022-10-07T01:36:41.819Z,10.89
2022-10-07T01:39:13.851Z,10.92
2022-10-07T01:41:41.549Z,10.91
2022-10-07T01:44:12.015Z,10.88
2022-10-07T01:46:43.026Z,10.81
2022-10-07T01:49:10.375Z,10.79
2022-10-07T01:51:51.938Z,10.83
2022-10-07T01:54:25.336Z,10.82
2022-10-07T01:57:05.727Z,10.80
2022-10-07T02:00:00.762Z,10.78
2022-10-07T02:03:06.790Z,10.72
2022-10-07T02:05:44.315Z,10.69
2022-10-07T02:08:23.283Z,10.65
2022-10-07T02:11:04.623Z,10.65
2022-10-07T02:14:03.711Z,10.64
2022-10-07T02:16:44.188Z,10.61
2022-10-07T02:19:17.791Z,10.56
2022-10-07T02:21:49.323Z,10.47
2022-10-07T02:24:20.500Z,10.48
2022-10-07T02:26:50.120Z,10.42
2022-10-07T02:29:24.052Z,10.40
2022-10-07T02:31:59.304Z,10.37
2022-10-07T02:34:28.652Z,10.33
2022-10-07T02:37:11.598Z,10.30
2022-10-07T02:39:38.591Z,10.28
2022-10-07T02:42:19.579Z,10.29
2022-10-07T02:44:54.052Z,10.23
2022-10-07T02:47:24.574Z,10.19
2022-10-07T02:49:54.068Z,10.13
2022-10-07T02:52:23.283Z,10.07
2022-10-07T02:55:00.415Z,10.02
2022-10-07T02:57:33.524Z,10.00
2022-10-07T03:00:01.882Z,9.95
2022-10-07T03:02:46.981Z,9.90
2022-10-07T03:05:19.305Z,9.87
2022-10-07T03:07:55.744Z,9.84
2022-10-07T03:10:23.330Z,9.80
2022-10-07T03:12:53.040Z,9.81
2022-10-07T03:15:20.232Z,9.74
2022-10-07T03:17:50.311Z,9.71
2022-10-07T03:20:17.898Z,9.67
2022-10-07T03:22:49.552Z,9.62
2022-10-07T03:25:18.442Z,9.58
2022-10-07T03:27:46.574Z,9.52
2022-10-07T03:30:20.171Z,9.50
2022-10-07T03:32:53.428Z,9.45
2022-10-07T03:35:21.371Z,9.40
2022-10-07T03:37:48.642Z,9.34
2022-10-07T03:40:18.959Z,9.31
2022-10-07T03:42:45.855Z,9.28
2022-10-07T03:45:13.376Z,9.23
2022-10-07T03:47:40.239Z,9.18
2022-10-07T03:50:08.867Z,9.13
2022-10-07T03:52:36.961Z,9.08
2022-10-07T03:55:04.139Z,9.07
2022-10-07T03:57:51.821Z,9.02
2022-10-07T04:00:23.843Z,8.98
2022-10-07T04:02:54.491Z,8.95
2022-10-07T04:05:22.908Z,8.93
2022-10-07T04:07:54.523Z,8.93
2022-10-07T04:10:21.638Z,8.89
2022-10-07T04:12:54.383Z,8.87
2022-10-07T04:15:21.818Z,8.85
2022-10-07T04:17:56.389Z,8.82
2022-10-07T04:20:24.190Z,8.79
2022-10-07T04:22:51.273Z,8.80
2022-10-07T04:25:35.878Z,8.79
2022-10-07T04:28:16.203Z,8.76
2022-10-07T04:30:51.342Z,8.74
2022-10-07T04:33:24.231Z,8.71
2022-10-07T04:35:53.927Z,8.71
2022-10-07T04:38:24.290Z,8.69
2022-10-07T04:40:54.845Z,8.68
2022-10-07T04:43:24.363Z,8.70
2022-10-07T04:46:07.606Z,8.79
2022-10-07T04:48:38.046Z,8.86
2022-10-07T04:51:08.860Z,8.92
2022-10-07T04:53:38.733Z,9.06
2022-10-07T04:56:08.273Z,9.17
2022-10-07T04:58:36.361Z,9.34
2022-10-07T05:01:09.443Z,9.47
2022-10-07T05:03:40.397Z,9.62
2022-10-07T05:06:10.003Z,9.70
2022-10-07T05:08:42.643Z,9.78
2022-10-07T05:11:11.615Z,9.84
2022-10-07T05:13:47.175Z,9.89
2022-10-07T05:16:15.400Z,9.97
2022-10-07T05:18:46.589Z,10.04
2022-10-07T05:21:17.340Z,10.14
2022-10-07T05:23:46.841Z,10.22
2022-10-07T05:26:18.457Z,10.31
2022-10-07T05:28:50.657Z,10.37
2022-10-07T05:31:25.965Z,10.43
2022-10-07T05:33:56.540Z,10.50
2022-10-07T05:36:25.650Z,10.53
2022-10-07T05:38:58.145Z,10.60
2022-10-07T05:41:30.057Z,10.65
2022-10-07T05:44:00.210Z,10.68
2022-10-07T05:46:27.693Z,10.70
2022-10-07T05:48:58.146Z,10.76
2022-10-07T05:51:30.389Z,10.79
2022-10-07T05:53:59.127Z,10.90
2022-10-07T05:56:32.915Z,10.97
2022-10-07T05:59:00.360Z,10.99
2022-10-07T06:01:30.276Z,10.99
2022-10-07T06:04:01.854Z,11.04
2022-10-07T06:06:34.116Z,10.99
2022-10-07T06:09:23.234Z,10.97
2022-10-07T06:12:08.895Z,11.00
2022-10-07T06:14:38.267Z,11.07
2022-10-07T06:17:07.364Z,11.19
2022-10-07T06:19:37.189Z,11.22
2022-10-07T06:22:05.158Z,11.29
2022-10-07T06:24:35.254Z,11.32
2022-10-07T06:27:02.967Z,11.38
2022-10-07T06:29:30.952Z,11.34
2022-10-07T06:31:58.612Z,11.34
2022-10-07T06:34:26.216Z,11.48
2022-10-07T06:36:54.734Z,11.58
2022-10-07T06:39:22.124Z,11.61
2022-10-07T06:41:52.971Z,11.68
2022-10-07T06:44:32.840Z,11.69
2022-10-07T06:47:01.301Z,11.84
2022-10-07T06:49:33.404Z,12.11
2022-10-07T06:52:00.743Z,12.19
2022-10-07T06:54:28.428Z,12.54
2022-10-07T06:56:58.673Z,12.59
2022-10-07T06:59:25.793Z,12.91
2022-10-07T07:02:01.809Z,13.36
2022-10-07T07:04:29.751Z,13.73
2022-10-07T07:06:57.621Z,14.14
2022-10-07T07:09:24.875Z,15.47
2022-10-07T07:11:56.385Z,15.56
2022-10-07T07:14:29.850Z,16.55
2022-10-07T07:17:02.602Z,17.04
2022-10-07T07:19:30.466Z,16.75
2022-10-07T07:21:58.439Z,16.36
2022-10-07T07:24:27.312Z,17.03
2022-10-07T07:26:54.678Z,16.97
2022-10-07T07:29:24.350Z,18.74
2022-10-07T07:32:00.048Z,19.66
2022-10-07T07:34:30.358Z,20.34
2022-10-07T07:37:00.179Z,19.57
2022-10-07T07:39:34.217Z,19.24
2022-10-07T07:42:09.784Z,19.93
2022-10-07T07:44:38.862Z,20.62
2022-10-07T07:47:09.361Z,19.35
2022-10-07T07:49:37.218Z,20.97
2022-10-07T07:52:05.552Z,22.04
2022-10-07T07:54:42.205Z,22.45
2022-10-07T07:57:10.522Z,22.69
2022-10-07T07:59:38.316Z,22.47
2022-10-07T08:02:10.295Z,22.25
2022-10-07T08:04:38.859Z,22.20
2022-10-07T08:07:07.681Z,22.33
2022-10-07T08:09:35.018Z,21.50
2022-10-07T08:12:02.462Z,21.23
2022-10-07T08:14:29.639Z,20.97
2022-10-07T08:16:59.187Z,20.85
2022-10-07T08:19:29.542Z,20.66
2022-10-07T08:22:00.103Z,20.34
2022-10-07T08:24:31.828Z,20.29
2022-10-07T08:26:58.995Z,20.48
2022-10-07T08:29:26.477Z,20.66
2022-10-07T08:31:53.611Z,20.32
2022-10-07T08:34:20.730Z,19.76
2022-10-07T08:36:49.254Z,19.44
2022-10-07T08:39:18.435Z,19.61
2022-10-07T08:42:01.314Z,19.34
2022-10-07T08:44:49.734Z,19.06
2022-10-07T08:47:25.094Z,19.09
2022-10-07T08:50:16.667Z,19.12
2022-10-07T08:52:53.854Z,19.85
2022-10-07T08:55:28.420Z,19.61
2022-10-07T08:58:04.266Z,19.86
2022-10-07T09:00:46.408Z,19.86
2022-10-07T09:03:41.294Z,19.57
2022-10-07T09:06:14.032Z,19.75
2022-10-07T09:08:47.520Z,19.76
2022-10-07T09:11:25.613Z,19.90
2022-10-07T09:14:23.906Z,19.93
2022-10-07T09:16:59.466Z,19.57
2022-10-07T09:19:30.339Z,19.89
2022-10-07T09:22:05.369Z,19.73
2022-10-07T09:24:34.491Z,19.85
2022-10-07T09:27:07.536Z,20.12
2022-10-07T09:29:36.615Z,20.13
2022-10-07T09:32:06.523Z,19.93
2022-10-07T09:34:34.336Z,19.89
2022-10-07T09:37:27.780Z,19.90
2022-10-07T09:40:15.853Z,19.97
2022-10-07T09:42:44.171Z,19.82
2022-10-07T09:45:35.091Z,19.89
2022-10-07T09:48:07.607Z,19.85
2022-10-07T09:50:41.189Z,20.12
2022-10-07T09:53:25.143Z,20.13
2022-10-07T09:55:55.217Z,19.77
2022-10-07T09:58:28.500Z,19.89
2022-10-07T10:00:58.225Z,20.26
2022-10-07T10:03:33.717Z,20.13
2022-10-07T10:06:06.960Z,20.29
2022-10-07T10:08:42.051Z,20.63
2022-10-07T10:11:18.189Z,20.67
2022-10-07T10:13:48.323Z,20.92
2022-10-07T10:16:24.479Z,20.51
2022-10-07T10:19:04.021Z,20.01
2022-10-07T10:21:39.427Z,20.09
2022-10-07T10:24:11.939Z,19.81
2022-10-07T10:26:56.151Z,20.14
2022-10-07T10:29:38.144Z,20.15
2022-10-07T10:32:21.634Z,20.34
2022-10-07T10:35:19.426Z,20.36
2022-10-07T10:37:46.376Z,20.60
2022-10-07T10:40:40.446Z,20.83
2022-10-07T10:43:13.798Z,20.52
2022-10-07T10:45:59.664Z,20.63
2022-10-07T10:48:29.524Z,20.35
2022-10-07T10:51:10.407Z,20.30
2022-10-07T10:54:20.919Z,20.42
2022-10-07T10:57:09.663Z,20.49
2022-10-07T11:00:02.091Z,20.12
2022-10-07T11:02:39.165Z,20.05
2022-10-07T11:05:21.396Z,20.35
2022-10-07T11:08:00.556Z,20.36
2022-10-07T11:10:35.486Z,20.33
2022-10-07T11:13:32.882Z,20.36
2022-10-07T11:16:20.635Z,20.74
2022-10-07T11:19:09.204Z,20.51
2022-10-07T11:21:43.310Z,20.30
2022-10-07T11:24:27.664Z,20.11
2022-10-07T11:26:58.821Z,20.22
2022-10-07T11:29:51.956Z,19.94
2022-10-07T11:32:35.930Z,19.93
2022-10-07T11:35:22.375Z,20.27
2022-10-07T11:38:10.609Z,20.30
2022-10-07T11:40:53.884Z,20.59
2022-10-07T11:43:38.335Z,20.56
2022-10-07T11:46:16.544Z,20.62
2022-10-07T11:48:49.348Z,20.45
2022-10-07T11:51:29.101Z,20.34
2022-10-07T11:54:06.833Z,20.30
2022-10-07T11:56:50.767Z,20.32
2022-10-07T11:59:44.339Z,20.41
2022-10-07T12:02:30.098Z,20.56
2022-10-07T12:05:01.982Z,20.66
2022-10-07T12:07:32.614Z,20.71
2022-10-07T12:09:59.561Z,20.64
2022-10-07T12:12:47.462Z,20.50
2022-10-07T12:15:33.895Z,20.45
2022-10-07T12:18:06.140Z,20.29
2022-10-07T12:20:58.869Z,20.25
2022-10-07T12:23:26.571Z,20.26
2022-10-07T12:26:03.710Z,20.35
2022-10-07T12:28:48.836Z,20.27
2022-10-07T12:31:18.750Z,20.29
2022-10-07T12:33:45.901Z,20.27
2022-10-07T12:36:18.898Z,20.32
2022-10-07T12:39:08.049Z,20.43
2022-10-07T12:41:39.675Z,20.44
2022-10-07T12:44:36.282Z,20.45
2022-10-07T12:47:16.385Z,20.41
2022-10-07T12:50:00.755Z,20.46
2022-10-07T12:52:55.746Z,20.55
2022-10-07T12:55:31.430Z,20.67
2022-10-07T12:58:25.282Z,20.73
2022-10-07T13:01:11.939Z,20.84
2022-10-07T13:04:11.321Z,20.97
2022-10-07T13:07:12.209Z,20.95
2022-10-07T13:10:07.198Z,20.89
2022-10-07T13:12:51.990Z,20.79
2022-10-07T13:15:35.375Z,20.79
2022-10-07T13:18:10.827Z,20.82
2022-10-07T13:21:02.790Z,20.92
2022-10-07T13:23:34.197Z,20.85
2022-10-07T13:26:05.404Z,20.91
2022-10-07T13:28:53.016Z,20.86
2022-10-07T13:31:23.292Z,20.91
2022-10-07T13:33:51.993Z,20.81
2022-10-07T13:36:35.160Z,20.80
2022-10-07T13:39:24.393Z,20.76
2022-10-07T13:41:57.923Z,20.72
2022-10-07T13:44:33.165Z,20.68
2022-10-07T13:47:06.093Z,20.63
2022-10-07T13:49:43.702Z,20.64
2022-10-07T13:52:23.426Z,20.68
2022-10-07T13:54:52.172Z,20.66
2022-10-07T13:57:21.525Z,20.68
2022-10-07T13:59:51.732Z,20.72
2022-10-07T14:02:20.789Z,20.71
2022-10-07T14:04:53.441Z,20.66
2022-10-07T14:07:22.186Z,20.58
2022-10-07T14:10:12.934Z,20.57
2022-10-07T14:12:47.630Z,20.62
2022-10-07T14:15:19.814Z,20.58
2022-10-07T14:17:54.812Z,20.52
2022-10-07T14:20:28.554Z,20.53
2022-10-07T14:23:01.856Z,20.47
2022-10-07T14:25:31.727Z,20.51
2022-10-07T14:27:59.552Z,20.49
2022-10-07T14:30:57.519Z,20.45
2022-10-07T14:34:05.352Z,20.37
2022-10-07T14:36:33.718Z,20.31
2022-10-07T14:39:04.012Z,20.35
2022-10-07T14:41:31.974Z,20.29
2022-10-07T14:44:02.466Z,20.30
2022-10-07T14:46:29.756Z,20.26
2022-10-07T14:49:02.234Z,20.25
2022-10-07T14:51:29.570Z,20.17
2022-10-07T14:54:02.043Z,20.16
2022-10-07T14:56:33.842Z,20.09
2022-10-07T14:59:02.530Z,20.10
2022-10-07T15:01:30.027Z,20.07
2022-10-07T15:03:57.760Z,20.01
2022-10-07T15:06:25.116Z,20.02
2022-10-07T15:08:52.684Z,19.99
2022-10-07T15:11:22.194Z,19.92
2022-10-07T15:13:50.126Z,19.89
2022-10-07T15:16:21.169Z,19.83
2022-10-07T15:18:52.382Z,19.78
2022-10-07T15:21:22.146Z,19.75
2022-10-07T15:23:53.120Z,19.65
2022-10-07T15:26:23.630Z,19.66
2022-10-07T15:28:56.437Z,19.61
2022-10-07T15:31:29.168Z,19.60
2022-10-07T15:33:57.931Z,19.53
2022-10-07T15:36:27.693Z,19.45
2022-10-07T15:38:55.886Z,19.44
2022-10-07T15:41:35.598Z,19.39
2022-10-07T15:44:06.290Z,19.26
2022-10-07T15:46:33.958Z,19.20
2022-10-07T15:49:01.002Z,19.17
2022-10-07T15:51:29.466Z,19.13
2022-10-07T15:53:59.773Z,19.07
2022-10-07T15:56:26.818Z,18.97
2022-10-07T15:58:54.182Z,18.90
2022-10-07T16:01:21.494Z,18.82
2022-10-07T16:03:49.466Z,18.75
2022-10-07T16:06:18.497Z,18.66
2022-10-07T16:08:45.452Z,18.56
2022-10-07T16:11:12.667Z,18.51
2022-10-07T16:13:42.003Z,18.51
2022-10-07T16:16:12.322Z,18.38
2022-10-07T16:18:41.408Z,18.38
2022-10-07T16:21:15.942Z,18.31
2022-10-07T16:23:47.831Z,18.22
2022-10-07T16:26:16.333Z,18.10
2022-10-07T16:29:06.883Z,17.98
2022-10-07T16:31:40.368Z,17.85
2022-10-07T16:34:08.651Z,17.69
2022-10-07T16:36:36.415Z,17.62
2022-10-07T16:39:05.543Z,17.50
2022-10-07T16:41:36.487Z,17.43
2022-10-07T16:44:05.120Z,17.44
2022-10-07T16:46:32.601Z,17.35
2022-10-07T16:49:00.455Z,17.32
2022-10-07T16:51:30.779Z,17.30
2022-10-07T16:54:01.822Z,17.28
2022-10-07T16:56:36.104Z,17.20
2022-10-07T16:59:05.385Z,17.19
2022-10-07T17:01:33.274Z,17.15
2022-10-07T17:04:01.216Z,17.05
2022-10-07T17:06:30.355Z,17.04
2022-10-07T17:09:04.397Z,16.97
2022-10-07T17:11:39.883Z,16.83
2022-10-07T17:14:07.525Z,16.70
2022-10-07T17:16:42.360Z,16.66
2022-10-07T17:19:13.347Z,16.60
2022-10-07T17:21:45.498Z,16.47
2022-10-07T17:24:13.377Z,16.45
2022-10-07T17:26:40.590Z,16.47
2022-10-07T17:29:12.494Z,16.52
2022-10-07T17:31:42.699Z,16.47
2022-10-07T17:34:11.776Z,16.46
2022-10-07T17:36:39.700Z,16.48
2022-10-07T17:39:07.731Z,16.44
2022-10-07T17:41:37.194Z,16.40
2022-10-07T17:44:09.422Z,16.32
2022-10-07T17:46:38.133Z,16.31
2022-10-07T17:49:09.650Z,16.17
2022-10-07T17:51:37.632Z,16.25
2022-10-07T17:54:06.141Z,16.21
2022-10-07T17:56:36.137Z,16.21
2022-10-07T17:59:03.960Z,16.21
2022-10-07T18:01:35.752Z,16.09
2022-10-07T18:04:06.213Z,16.01
2022-10-07T18:06:35.766Z,15.89
2022-10-07T18:09:05.427Z,15.85
2022-10-07T18:11:52.648Z,15.85
2022-10-07T18:14:38.680Z,15.79
2022-10-07T18:17:08.073Z,15.78
2022-10-07T18:19:35.761Z,15.73
2022-10-07T18:22:03.314Z,15.64
2022-10-07T18:24:30.413Z,15.56
2022-10-07T18:26:59.942Z,15.62
2022-10-07T18:29:33.161Z,15.47
2022-10-07T18:32:01.167Z,15.43
2022-10-07T18:34:29.176Z,15.29
2022-10-07T18:36:57.212Z,15.27
2022-10-07T18:39:27.806Z,15.17
2022-10-07T18:41:58.776Z,15.04
2022-10-07T18:44:26.796Z,14.99
2022-10-07T18:46:55.713Z,14.88
2022-10-07T18:49:28.146Z,14.82
2022-10-07T18:51:58.017Z,14.73
2022-10-07T18:54:27.010Z,14.64
2022-10-07T18:56:57.986Z,14.59
2022-10-07T18:59:27.996Z,14.51
2022-10-07T19:01:58.009Z,14.46
2022-10-07T19:04:26.278Z,14.42
2022-10-07T19:07:00.398Z,14.42
2022-10-07T19:09:29.924Z,14.31
2022-10-07T19:12:01.295Z,14.23
2022-10-07T19:14:32.523Z,14.13
2022-10-07T19:17:04.010Z,14.10
2022-10-07T19:19:33.592Z,14.06
2022-10-07T19:22:00.876Z,14.06
2022-10-07T19:24:46.161Z,14.05
2022-10-07T19:27:14.953Z,13.98
2022-10-07T19:29:48.542Z,13.95
2022-10-07T19:32:15.769Z,13.88
2022-10-07T19:34:44.441Z,13.82
2022-10-07T19:37:13.979Z,13.78
2022-10-07T19:39:41.761Z,13.75
2022-10-07T19:42:13.203Z,13.78
2022-10-07T19:44:48.601Z,13.77
2022-10-07T19:47:16.454Z,13.74
2022-10-07T19:49:54.162Z,13.74
2022-10-07T19:52:22.559Z,13.69
2022-10-07T19:54:55.461Z,13.74
2022-10-07T19:57:24.764Z,13.69
2022-10-07T19:59:51.748Z,13.67
2022-10-07T20:02:19.471Z,13.64
2022-10-07T20:04:47.599Z,13.64
2022-10-07T20:07:18.186Z,13.58
2022-10-07T20:09:48.270Z,13.52
2022-10-07T20:12:19.492Z,13.39
2022-10-07T20:14:46.681Z,13.34
2022-10-07T20:17:13.856Z,13.29
2022-10-07T20:19:40.873Z,13.23
2022-10-07T20:22:08.389Z,13.21
2022-10-07T20:24:35.713Z,13.14
2022-10-07T20:27:04.144Z,13.21
2022-10-07T20:29:31.460Z,13.25
2022-10-07T20:31:58.641Z,13.24
2022-10-07T20:34:26.489Z,13.27
2022-10-07T20:36:54.974Z,13.24
2022-10-07T20:39:40.549Z,13.21
2022-10-07T20:42:22.265Z,13.12
2022-10-07T20:44:50.503Z,13.09
2022-10-07T20:47:19.417Z,12.97
2022-10-07T20:49:48.630Z,12.88
2022-10-07T20:52:21.320Z,12.91
2022-10-07T20:54:49.098Z,12.94
2022-10-07T20:57:21.957Z,12.97
2022-10-07T20:59:49.115Z,12.92
2022-10-07T21:02:18.435Z,12.81
2022-10-07T21:04:48.186Z,12.70
2022-10-07T21:07:19.801Z,12.67
2022-10-07T21:09:47.914Z,12.68
2022-10-07T21:12:18.407Z,12.65
2022-10-07T21:14:48.025Z,12.62
2022-10-07T21:17:16.084Z,12.62
2022-10-07T21:19:43.250Z,12.65
2022-10-07T21:22:10.742Z,12.57
2022-10-07T21:24:38.301Z,12.58
2022-10-07T21:27:07.068Z,12.52
2022-10-07T21:29:40.724Z,12.44
2022-10-07T21:32:10.418Z,12.40
2022-10-07T21:34:38.049Z,12.33
2022-10-07T21:37:04.970Z,12.35
2022-10-07T21:39:32.166Z,12.27
2022-10-07T21:41:59.354Z,12.22
2022-10-07T21:44:27.703Z,12.19
2022-10-07T21:47:00.031Z,12.13
2022-10-07T21:49:27.333Z,12.05
2022-10-07T21:51:54.388Z,11.98
2022-10-07T21:54:21.544Z,11.90
2022-10-07T21:56:50.200Z,11.84
2022-10-07T21:59:17.282Z,11.81
2022-10-07T22:01:44.695Z,11.78
2022-10-07T22:04:18.873Z,11.84
2022-10-07T22:07:07.543Z,11.75
2022-10-07T22:09:36.164Z,11.63
2022-10-07T22:12:06.357Z,11.62
2022-10-07T22:14:35.931Z,11.58
2022-10-07T22:17:03.912Z,11.57
2022-10-07T22:19:31.517Z,11.48
2022-10-07T22:21:58.552Z,11.38
2022-10-07T22:24:25.894Z,11.30
2022-10-07T22:26:55.867Z,11.25
2022-10-07T22:29:23.185Z,11.23
2022-10-07T22:31:50.226Z,11.18
2022-10-07T22:34:36.553Z,11.20
2022-10-07T22:37:04.428Z,11.22
2022-10-07T22:39:31.859Z,11.16
2022-10-07T22:41:59.967Z,11.14
2022-10-07T22:44:30.189Z,11.11
2022-10-07T22:46:59.467Z,11.04
2022-10-07T22:49:29.787Z,11.06
2022-10-07T22:51:59.768Z,11.02
2022-10-07T22:54:30.137Z,11.03
2022-10-07T22:56:59.950Z,11.03
2022-10-07T22:59:27.516Z,10.95
2022-10-07T23:01:54.622Z,10.97
2022-10-07T23:04:24.040Z,10.98
2022-10-07T23:06:51.284Z,10.98
2022-10-07T23:09:18.302Z,10.94
2022-10-07T23:11:45.883Z,10.91
2022-10-07T23:14:13.144Z,10.93
2022-10-07T23:16:40.111Z,10.88
2022-10-07T23:19:07.019Z,10.84
2022-10-07T23:21:35.001Z,10.77
2022-10-07T23:24:07.191Z,10.76
2022-10-07T23:26:36.372Z,10.73
2022-10-07T23:29:03.940Z,10.65
2022-10-07T23:31:32.250Z,10.58
2022-10-07T23:34:01.109Z,10.62
2022-10-07T23:36:28.266Z,10.70
2022-10-07T23:38:55.655Z,10.73
2022-10-07T23:41:24.673Z,10.68
2022-10-07T23:43:53.356Z,10.65
2022-10-07T23:46:24.815Z,10.60
2022-10-07T23:48:52.986Z,10.60
2022-10-07T23:51:22.194Z,10.59
2022-10-07T23:53:49.328Z,10.61
2022-10-07T23:56:18.690Z,10.58
2022-10-07T23:58:45.864Z,10.55
